createdAt,value
2023-01-04T09:55:50.479Z,96278.84
2023-01-04T09:58:36.065Z,96281.66
2023-01-04T10:01:07.156Z,96279.63
2023-01-04T10:03:39.784Z,96287.19
2023-01-04T10:06:10.412Z,96283.03
2023-01-04T10:08:37.125Z,96282.78
2023-01-04T10:11:09.628Z,96274.41
2023-01-04T10:14:02.609Z,96272.94
2023-01-04T10:17:35.636Z,96270.69
2023-01-04T10:23:29.535Z,96268.88
2023-01-04T10:26:02.901Z,96268.66
2023-01-04T10:28:51.143Z,96257.91
2023-01-04T10:31:40.280Z,96250.91
2023-01-04T10:34:28.478Z,96234.31
2023-01-04T10:37:13.931Z,96230.59
2023-01-04T10:39:41.875Z,96227.63
2023-01-04T10:42:31.015Z,96217.53
2023-01-04T10:45:18.069Z,96222.09
2023-01-04T10:48:07.738Z,96213.41
2023-01-04T10:50:47.900Z,96213.75
2023-01-04T10:53:27.305Z,96218.75
2023-01-04T10:56:24.515Z,96215.81
2023-01-04T10:59:18.695Z,96212.66
2023-01-04T11:01:57.500Z,96202.91
2023-01-04T11:04:30.181Z,96195.63
2023-01-04T11:07:07.717Z,96197.19
2023-01-04T11:09:44.511Z,96193.84
2023-01-04T11:12:17.173Z,96181.53
2023-01-04T11:14:43.696Z,96180.28
2023-01-04T11:17:12.197Z,96180.28
2023-01-04T11:19:39.743Z,96183.72
2023-01-04T11:22:12.270Z,96187.16
2023-01-04T11:25:00.353Z,96180.28
2023-01-04T11:27:32.553Z,96180.06
2023-01-04T11:30:11.485Z,96178.59
2023-01-04T11:33:17.044Z,96170.06
2023-01-04T11:35:48.321Z,96165.81
2023-01-04T11:38:22.284Z,96161.97
2023-01-04T11:40:58.021Z,96152.00
2023-01-04T11:43:26.696Z,96156.59
2023-01-04T11:46:00.228Z,96151.78
2023-01-04T11:48:47.005Z,96147.81
2023-01-04T11:51:34.365Z,96138.47
2023-01-04T11:54:19.747Z,96121.75
2023-01-04T11:57:11.993Z,96129.03
2023-01-04T11:59:39.001Z,96125.53
2023-01-04T12:02:35.146Z,96128.97
2023-01-04T12:05:21.244Z,96113.75
2023-01-04T12:07:52.991Z,96115.66
2023-01-04T12:10:26.536Z,96112.25
2023-01-04T12:12:59.439Z,96104.59
2023-01-04T12:16:08.345Z,96107.09
2023-01-04T12:18:42.520Z,96101.66
2023-01-04T12:21:24.352Z,96087.22
2023-01-04T12:23:52.557Z,96092.03
2023-01-04T12:26:20.466Z,96087.50
2023-01-04T12:28:53.646Z,96079.31
2023-01-04T12:31:21.098Z,96079.44
2023-01-04T12:33:55.218Z,96079.81
2023-01-04T12:36:43.063Z,96073.41
2023-01-04T12:39:12.999Z,96070.19
2023-01-04T12:41:39.465Z,96070.59
2023-01-04T12:44:46.852Z,96057.41
2023-01-04T12:47:38.115Z,96055.88
2023-01-04T12:50:10.898Z,96056.63
2023-01-04T12:53:10.716Z,96047.97
2023-01-04T12:55:41.958Z,96040.72
2023-01-04T12:58:51.141Z,96039.03
2023-01-04T13:01:29.067Z,96034.44
2023-01-04T13:04:05.933Z,96042.31
2023-01-04T13:06:41.568Z,96050.97
2023-01-04T13:09:25.010Z,96044.78
2023-01-04T13:12:26.029Z,96049.63
2023-01-04T13:15:02.610Z,96033.69
2023-01-04T13:17:37.592Z,96039.03
2023-01-04T13:20:20.293Z,96033.78
2023-01-04T13:22:53.428Z,96046.22
2023-01-04T13:25:23.091Z,96048.13
2023-01-04T13:28:01.976Z,96042.91
2023-01-04T13:30:29.344Z,96046.28
2023-01-04T13:33:25.079Z,96031.25
2023-01-04T13:35:42.626Z,96032.44
2023-01-04T13:38:15.663Z,96038.81
2023-01-04T13:40:49.362Z,96029.94
2023-01-04T13:43:16.224Z,96025.38
2023-01-04T13:46:19.154Z,96026.53
2023-01-04T13:48:49.148Z,96025.56
2023-01-04T13:51:33.930Z,96029.38
2023-01-04T13:54:06.335Z,96034.50
2023-01-04T13:56:34.726Z,96026.47
2023-01-04T13:59:01.932Z,96015.25
2023-01-04T14:01:35.665Z,96010.41
2023-01-04T14:04:03.795Z,96015.00
2023-01-04T14:06:41.307Z,96016.63
2023-01-04T14:09:10.825Z,96009.22
2023-01-04T14:12:04.070Z,96012.53
2023-01-04T14:14:38.687Z,96013.50
2023-01-04T14:17:12.642Z,96010.28
2023-01-04T14:19:45.443Z,96010.63
2023-01-04T14:22:42.628Z,96009.75
2023-01-04T14:25:30.939Z,96015.03
2023-01-04T14:28:19.460Z,96013.72
2023-01-04T14:30:48.370Z,96017.50
2023-01-04T14:33:26.315Z,96018.41
2023-01-04T14:36:04.187Z,96020.59
2023-01-04T14:38:35.021Z,96015.34
2023-01-04T14:41:26.231Z,96015.00
2023-01-04T14:44:03.530Z,96007.09
2023-01-04T14:46:32.012Z,96004.41
2023-01-04T14:48:59.257Z,95999.31
2023-01-04T14:51:34.821Z,96011.81
2023-01-04T14:54:01.448Z,95985.91
2023-01-04T14:56:27.995Z,95997.59
2023-01-04T14:58:54.617Z,96000.50
2023-01-04T15:01:21.262Z,95991.88
2023-01-04T15:03:47.989Z,95994.06
2023-01-04T15:06:14.595Z,95984.31
2023-01-04T15:08:41.197Z,95968.97
2023-01-04T15:11:09.888Z,95969.22
2023-01-04T15:13:39.735Z,95964.38
2023-01-04T15:16:09.847Z,95964.69
2023-01-04T15:18:36.468Z,95969.06
2023-01-04T15:21:03.989Z,95962.47
2023-01-04T15:23:30.564Z,95964.81
2023-01-04T15:25:57.171Z,95968.38
2023-01-04T15:28:25.997Z,95966.69
2023-01-04T15:30:52.622Z,95968.50
2023-01-04T15:33:19.350Z,95970.78
2023-01-04T15:35:46.651Z,95967.28
2023-01-04T15:38:18.357Z,95969.97
2023-01-04T15:40:45.297Z,95967.72
2023-01-04T15:43:11.917Z,95973.22
2023-01-04T15:45:39.561Z,95975.28
2023-01-04T15:48:07.908Z,95964.03
2023-01-04T15:50:36.425Z,95946.25
2023-01-04T15:53:03.130Z,95958.53
2023-01-04T15:55:34.133Z,95946.41
2023-01-04T15:58:03.091Z,95949.13
2023-01-04T16:00:29.694Z,95943.72
2023-01-04T16:02:56.881Z,95941.34
2023-01-04T16:05:23.495Z,95947.88
2023-01-04T16:07:50.080Z,95941.78
2023-01-04T16:10:16.823Z,95937.16
2023-01-04T16:12:44.245Z,95945.50
2023-01-04T16:15:19.205Z,95941.47
2023-01-04T16:17:45.743Z,95931.63
2023-01-04T16:20:14.944Z,95927.38
2023-01-04T16:22:42.261Z,95938.88
2023-01-04T16:25:11.227Z,95942.94
2023-01-04T16:27:39.302Z,95932.00
2023-01-04T16:30:13.966Z,95950.31
2023-01-04T16:32:43.899Z,95941.38
2023-01-04T16:35:11.412Z,95944.91
2023-01-04T16:37:38.057Z,95935.84
2023-01-04T16:40:06.831Z,95958.56
2023-01-04T16:42:35.241Z,95945.97
2023-01-04T16:45:01.937Z,95938.00
2023-01-04T16:47:28.559Z,95927.88
2023-01-04T16:49:55.262Z,95933.56
2023-01-04T16:52:21.922Z,95946.63
2023-01-04T16:54:49.237Z,95948.78
2023-01-04T16:57:15.866Z,95953.28
2023-01-04T16:59:42.892Z,95940.16
2023-01-04T17:02:12.001Z,95953.47
2023-01-04T17:04:38.775Z,95946.25
2023-01-04T17:07:05.981Z,95950.75
2023-01-04T17:09:32.567Z,95959.31
2023-01-04T17:12:45.099Z,95950.09
2023-01-04T17:15:07.819Z,95937.06
2023-01-04T17:17:37.244Z,95952.91
2023-01-04T17:20:04.485Z,95942.97
2023-01-04T17:22:34.517Z,95951.69
2023-01-04T17:25:01.519Z,95952.94
2023-01-04T17:27:28.050Z,95943.50
2023-01-04T17:29:54.629Z,95943.50
2023-01-04T17:32:21.210Z,95936.50
2023-01-04T17:34:49.590Z,95918.03
2023-01-04T17:37:16.135Z,95933.19
2023-01-04T17:39:42.750Z,95923.19
2023-01-04T17:42:09.313Z,95926.78
2023-01-04T17:44:35.831Z,95922.78
2023-01-04T17:47:02.404Z,95910.63
2023-01-04T17:49:32.130Z,95912.97
2023-01-04T17:51:59.159Z,95921.81
2023-01-04T17:54:26.805Z,95907.50
2023-01-04T17:56:53.408Z,95909.81
2023-01-04T17:59:20.158Z,95910.28
2023-01-04T18:01:46.920Z,95914.78
2023-01-04T18:04:13.526Z,95917.34
2023-01-04T18:06:40.190Z,95923.59
2023-01-04T18:09:07.826Z,95918.66
2023-01-04T18:11:35.326Z,95918.03
2023-01-04T18:14:05.767Z,95920.69
2023-01-04T18:16:55.905Z,95921.84
2023-01-04T18:19:24.602Z,95912.31
2023-01-04T18:21:51.175Z,95904.63
2023-01-04T18:29:52.785Z,95896.84
2023-01-04T18:32:20.022Z,95892.16
2023-01-04T18:34:46.599Z,95901.81
2023-01-04T18:37:13.757Z,95894.91
2023-01-04T18:39:40.397Z,95894.00
2023-01-04T18:42:06.920Z,95908.47
2023-01-04T18:44:34.985Z,95886.25
2023-01-04T18:47:03.173Z,95896.28
2023-01-04T18:49:29.752Z,95893.59
2023-01-04T18:51:56.280Z,95886.03
2023-01-04T18:54:22.924Z,95880.19
2023-01-04T18:56:49.526Z,95875.91
2023-01-04T18:59:18.970Z,95881.44
2023-01-04T19:01:45.967Z,95885.41
2023-01-04T19:04:16.014Z,95885.81
2023-01-04T19:06:42.923Z,95882.16
2023-01-04T19:09:09.529Z,95894.53
2023-01-04T19:11:36.175Z,95884.84
2023-01-04T19:14:04.004Z,95885.53
2023-01-04T19:16:31.566Z,95871.91
2023-01-04T19:19:01.793Z,95871.94
2023-01-04T19:21:29.117Z,95867.63
2023-01-04T19:23:56.322Z,95871.38
2023-01-04T19:26:24.033Z,95856.31
2023-01-04T19:28:51.393Z,95853.28
2023-01-04T19:31:20.243Z,95848.41
2023-01-04T19:33:47.722Z,95843.75
2023-01-04T19:36:16.989Z,95844.75
2023-01-04T19:38:43.510Z,95827.09
2023-01-04T19:41:16.079Z,95836.63
2023-01-04T19:43:42.970Z,95830.81
2023-01-04T19:46:11.650Z,95822.84
2023-01-04T19:48:39.026Z,95817.28
2023-01-04T19:51:14.981Z,95824.72
2023-01-04T19:53:42.995Z,95820.63
2023-01-04T19:56:10.666Z,95822.91
2023-01-04T19:58:38.193Z,95830.44
2023-01-04T20:01:06.040Z,95822.56
2023-01-04T20:03:33.166Z,95839.03
2023-01-04T20:06:05.117Z,95829.94
2023-01-04T20:08:32.127Z,95827.81
2023-01-04T20:11:00.779Z,95823.38
2023-01-04T20:13:29.537Z,95834.91
2023-01-04T20:15:56.284Z,95820.44
2023-01-04T20:18:25.843Z,95815.50
2023-01-04T20:20:52.942Z,95819.63
2023-01-04T20:23:21.591Z,95824.56
2023-01-04T20:25:50.148Z,95826.13
2023-01-04T20:28:18.010Z,95825.50
2023-01-04T20:30:44.615Z,95807.09
2023-01-04T20:33:11.364Z,95812.06
2023-01-04T20:35:41.901Z,95830.09
2023-01-04T20:38:09.871Z,95827.50
2023-01-04T20:40:38.474Z,95832.03
2023-01-04T20:43:23.567Z,95823.13
2023-01-04T20:45:50.178Z,95842.09
2023-01-04T20:48:16.994Z,95841.59
2023-01-04T20:50:43.629Z,95821.56
2023-01-04T20:53:11.388Z,95842.28
2023-01-04T20:55:42.414Z,95838.03
2023-01-04T20:58:16.005Z,95837.13
2023-01-04T21:00:43.754Z,95830.13
2023-01-04T21:03:11.212Z,95818.41
2023-01-04T21:05:46.835Z,95817.38
2023-01-04T21:08:13.710Z,95820.03
2023-01-04T21:10:43.135Z,95829.88
2023-01-04T21:13:11.594Z,95825.50
2023-01-04T21:15:39.129Z,95806.19
2023-01-04T21:18:06.321Z,95806.47
2023-01-04T21:20:33.318Z,95818.38
2023-01-04T21:23:00.316Z,95809.34
2023-01-04T21:25:26.913Z,95808.81
2023-01-04T21:27:53.631Z,95808.78
2023-01-04T21:30:21.128Z,95808.31
2023-01-04T21:32:47.811Z,95801.38
2023-01-04T21:35:14.407Z,95795.75
2023-01-04T21:37:40.977Z,95815.75
2023-01-04T21:40:07.958Z,95815.56
2023-01-04T21:42:34.486Z,95815.84
2023-01-04T21:45:01.039Z,95795.28
2023-01-04T21:47:31.082Z,95803.41
2023-01-04T21:49:57.829Z,95801.94
2023-01-04T21:52:24.529Z,95789.31
2023-01-04T21:54:51.130Z,95804.94
2023-01-04T21:57:17.711Z,95821.69
2023-01-04T21:59:44.202Z,95800.94
2023-01-04T22:02:18.997Z,95798.72
2023-01-04T22:04:46.272Z,95796.34
2023-01-04T22:07:12.830Z,95788.72
2023-01-04T22:09:39.553Z,95803.66
2023-01-04T22:12:06.582Z,95793.25
2023-01-04T22:14:33.504Z,95812.97
2023-01-04T22:17:00.159Z,95812.03
2023-01-04T22:19:27.275Z,95811.44
2023-01-04T22:21:53.797Z,95812.69
2023-01-04T22:24:20.409Z,95808.44
2023-01-04T22:26:49.162Z,95816.34
2023-01-04T22:29:16.025Z,95821.84
2023-01-04T22:31:42.781Z,95811.78
2023-01-04T22:34:09.409Z,95815.78
2023-01-04T22:36:35.941Z,95816.75
2023-01-04T22:39:02.483Z,95812.41
2023-01-04T22:41:29.917Z,95820.22
2023-01-04T22:44:03.237Z,95816.88
2023-01-04T22:46:30.910Z,95821.44
2023-01-04T22:48:58.794Z,95820.50
2023-01-04T22:51:27.624Z,95826.84
2023-01-04T22:53:59.578Z,95827.13
2023-01-04T22:56:27.526Z,95839.41
2023-01-04T22:58:55.876Z,95836.41
2023-01-04T23:01:31.092Z,95827.50
2023-01-04T23:04:00.219Z,95825.34
2023-01-04T23:06:28.374Z,95848.69
2023-01-04T23:09:07.760Z,95827.06
2023-01-04T23:11:35.982Z,95835.09
2023-01-04T23:14:04.341Z,95831.69
2023-01-04T23:16:33.171Z,95819.59
2023-01-04T23:19:01.569Z,95828.28
2023-01-04T23:21:28.444Z,95835.59
2023-01-04T23:23:54.998Z,95815.81
2023-01-04T23:26:23.226Z,95808.69
2023-01-04T23:28:50.690Z,95796.13
2023-01-04T23:31:20.455Z,95793.13
2023-01-04T23:33:52.404Z,95798.47
2023-01-04T23:36:24.189Z,95769.97
2023-01-04T23:38:53.783Z,95783.00
2023-01-04T23:41:20.973Z,95759.97
2023-01-04T23:43:47.804Z,95763.75
2023-01-04T23:46:17.036Z,95770.56
2023-01-04T23:48:44.401Z,95770.41
2023-01-04T23:51:12.966Z,95781.00
2023-01-04T23:53:39.800Z,95777.91
2023-01-04T23:56:11.679Z,95777.94
2023-01-04T23:58:38.236Z,95760.94
